ADDS METAR Data INFO
IDs: Format: Raw Decoded Include TAF

Data at: 0858 UTC 19 Jun 2018

K14Y 190855Z AUTO 06003KT 10SM OVC075 18/12 A3004 RMK AO2
K14Y 190835Z AUTO 05004KT 10SM BKN075 OVC085 18/13 A3003 RMK AO2
K14Y 190815Z AUTO 04004KT 10SM BKN075 OVC085 18/13 A3004 RMK AO2
K14Y 190755Z AUTO 05004KT 10SM BKN075 OVC085 18/12 A3004 RMK AO2
K14Y 190735Z AUTO 05004KT 10SM BKN075 OVC085 18/13 A3004 RMK AO2
K14Y 190715Z AUTO 04005KT 10SM OVC075 18/13 A3004 RMK AO2
K14Y 190655Z AUTO 00000KT 10SM BKN075 OVC095 18/13 A3005 RMK AO2
K14Y 190635Z AUTO 07003KT 10SM SCT075 BKN095 18/13 A3004 RMK AO2
K14Y 190615Z AUTO 05003KT 10SM SCT075 BKN085 18/14 A3004 RMK AO2
K14Y 190555Z AUTO 05006KT 10SM BKN080 BKN085 19/14 A3005 RMK AO2
K14Y 190535Z AUTO 00000KT 10SM BKN080 BKN095 BKN120 19/13 A3005 RMK AO2
K14Y 190515Z AUTO 07004KT 10SM SCT080 BKN095 OVC120 20/13 A3005 RMK AO2
K14Y 190455Z AUTO 07006KT 10SM OVC080 20/13 A3005 RMK AO2
K14Y 190435Z AUTO 06004KT 10SM OVC080 20/13 A3005 RMK AO2
K14Y 190415Z AUTO 05003KT 10SM OVC080 20/15 A3006 RMK AO2
K14Y 190355Z AUTO 00000KT 10SM -RA OVC080 20/15 A3006 RMK AO2
K14Y 190336Z AUTO 00000KT 10SM OVC090 21/15 A3006 RMK AO2
K14Y 190335Z AUTO 08003KT 10SM OVC090 21/15 A3006 RMK AO2
K14Y 190315Z AUTO 05004KT 7SM OVC090 20/16 A3005 RMK AO2 LTG DSNT S
K14Y 190255Z AUTO 00000KT 10SM OVC090 21/16 A3005 RMK AO2
K14Y 190235Z AUTO 00000KT 10SM OVC090 21/16 A3005 RMK AO2
K14Y 190215Z AUTO 00000KT 10SM OVC080 21/16 A3005 RMK AO2
K14Y 190156Z AUTO 00000KT 10SM SCT080 OVC110 21/16 A3003 RMK AO2
K14Y 190135Z AUTO 00000KT 10SM OVC110 21/16 A3003 RMK AO2
K14Y 190115Z AUTO 07003KT 10SM OVC110 22/15 A3002 RMK AO2
K14Y 190055Z AUTO 00000KT 10SM BKN110 22/16 A3002 RMK AO2
K14Y 190035Z AUTO 09003KT 10SM BKN120 22/15 A3002 RMK AO2
K14Y 190015Z AUTO 08003KT 10SM -DZ SCT070 SCT085 BKN120 22/16 A3001 RMK AO2
K14Y 182355Z AUTO 09004KT 7SM SCT100 BKN120 22/15 A3002 RMK AO2
K14Y 182335Z AUTO 10005KT 10SM SCT120 23/14 A3002 RMK AO2
K14Y 182315Z AUTO 09005KT 10SM SCT120 23/13 A3003 RMK AO2
K14Y 182255Z AUTO 10006KT 10SM CLR 23/13 A3003 RMK AO2
K14Y 182235Z AUTO 09006KT 7SM SCT110 25/13 A3003 RMK AO2
K14Y 182215Z AUTO 10006KT 10SM SCT100 SCT120 23/13 A3004 RMK AO2
K14Y 182155Z AUTO 11007KT 10SM SCT100 SCT120 23/13 A3005 RMK AO2
K14Y 182135Z AUTO 09008KT 10SM SCT100 23/13 A3005 RMK AO2
K14Y 182115Z AUTO 10007KT 10SM CLR 23/14 A3004 RMK AO2
K14Y 182056Z AUTO 10009G14KT 7SM CLR 24/14 A3004 RMK AO2
K14Y 182055Z AUTO 10009G14KT 7SM CLR 24/14 A3004 RMK AO2
K14Y 182035Z AUTO 11007KT 7SM CLR 23/15 A3004 RMK AO2
K14Y 182015Z AUTO 11006KT 10SM CLR 23/15 A3004 RMK AO2
K14Y 181955Z AUTO 09008KT 7SM CLR 23/13 A3004 RMK AO2
K14Y 181935Z AUTO 08008KT 7SM CLR 23/13 A3004 RMK AO2
K14Y 181915Z AUTO 09009KT 10SM CLR 23/13 A3005 RMK AO2
K14Y 181855Z AUTO 08006KT 10SM CLR 23/13 A3005 RMK AO2
K14Y 181835Z AUTO 05008KT 10SM CLR 23/14 A3005 RMK AO2
K14Y 181815Z AUTO 07010KT 10SM SCT046 23/13 A3005 RMK AO2
K14Y 181756Z AUTO 07010KT 10SM CLR 23/14 A3005 RMK AO2
K14Y 181735Z AUTO 07008KT 10SM CLR 22/13 A3006 RMK AO2
K14Y 181715Z AUTO 06008G16KT 10SM CLR 22/13 A3006 RMK AO2
K14Y 181655Z AUTO 05007KT 10SM CLR 22/13 A3006 RMK AO2
K14Y 181635Z AUTO 05007KT 10SM CLR 22/13 A3006 RMK AO2
K14Y 181616Z AUTO 06008KT 7SM CLR 21/13 A3005 RMK AO2
K14Y 181615Z AUTO 06007KT 7SM CLR 21/13 A3005 RMK AO2
K14Y 181555Z AUTO 04006KT 10SM CLR 22/14 A3005 RMK AO2
K14Y 181535Z AUTO 04009KT 7SM CLR 21/13 A3005 RMK AO2
K14Y 181515Z AUTO 03009KT 7SM CLR 21/14 A3005 RMK AO2
K14Y 181455Z AUTO 04009G14KT 5SM HZ CLR 21/13 A3004 RMK AO2
K14Y 181435Z AUTO 03007KT 360V060 10SM CLR 20/14 A3004 RMK AO2
K14Y 181415Z AUTO 02010KT 10SM CLR 20/13 A3004 RMK AO2
K14Y 181355Z AUTO 04008KT 10SM CLR 20/13 A3004 RMK AO2
K14Y 181335Z AUTO 03008KT 10SM CLR 18/13 A3003 RMK AO2
K14Y 181315Z AUTO 02006KT 10SM CLR 18/14 A3003 RMK AO2
K14Y 181255Z AUTO 02009KT 10SM CLR 18/14 A3004 RMK AO2
K14Y 181235Z AUTO 02010KT 10SM CLR 17/14 A3003 RMK AO2
K14Y 181215Z AUTO 01007KT 10SM CLR 17/15 A3003 RMK AO2
K14Y 181155Z AUTO 36007KT 10SM CLR 17/15 A3002 RMK AO2
K14Y 181136Z AUTO 01007KT 10SM CLR 17/15 A3002 RMK AO2
K14Y 181115Z AUTO 01007KT 10SM CLR 17/16 A3001 RMK AO2
K14Y 181055Z AUTO 01008KT 10SM CLR 17/16 A3000 RMK AO2
K14Y 181035Z AUTO 01006KT 10SM CLR 17/16 A3000 RMK AO2
K14Y 181015Z AUTO 01006KT 10SM CLR 17/16 A2998 RMK AO2
K14Y 180955Z AUTO 01006KT 10SM CLR 17/16 A2998 RMK AO2
K14Y 180935Z AUTO 01007KT 10SM CLR 17/16 A2998 RMK AO2
K14Y 180915Z AUTO 01006KT 10SM CLR 17/15 A2998 RMK AO2
K14Y 180855Z AUTO 01007KT 10SM SCT110 17/16 A2997 RMK AO2
K14Y 180835Z AUTO 01006KT 10SM BKN110 17/16 A2996 RMK AO2
K14Y 180815Z AUTO 02007KT 10SM SCT090 OVC100 17/16 A2996 RMK AO2
K14Y 180755Z AUTO 01005KT 10SM SCT047 OVC100 17/16 A2996 RMK AO2
K14Y 180735Z AUTO 01005KT 10SM OVC047 17/16 A2996 RMK AO2 LTG DSNT SE
K14Y 180715Z AUTO 02005KT 10SM SCT045 OVC090 17/15 A2996 RMK AO2
K14Y 180655Z AUTO 01005KT 10SM SCT045 OVC090 17/16 A2995 RMK AO2
K14Y 180635Z AUTO 01007KT 10SM BKN100 17/16 A2995 RMK AO2
K14Y 180615Z AUTO 01007KT 10SM BKN110 17/16 A2994 RMK AO2 LTG DSNT SE
K14Y 180555Z AUTO 02007KT 10SM SCT090 OVC110 18/16 A2994 RMK AO2
K14Y 180535Z AUTO 36006KT 10SM OVC090 18/17 A2995 RMK AO2
K14Y 180515Z AUTO 01007KT 10SM OVC090 18/17 A2994 RMK AO2
K14Y 180455Z AUTO 02004KT 10SM OVC100 18/17 A2994 RMK AO2 P0001
K14Y 180435Z AUTO 35006KT 10SM RA OVC110 18/17 A2995 RMK AO2 LTG DSNT SW P0001
K14Y 180415Z AUTO 36006KT 10SM RA SCT039 SCT060 BKN120 18/17 A2995 RMK AO2 P0001
K14Y 180355Z AUTO 01005KT 10SM -RA SCT017 BKN047 OVC090 18/17 A2995 RMK AO2
K14Y 180335Z AUTO 34004KT 10SM OVC014 19/17 A2996 RMK AO2
K14Y 180316Z AUTO 36003KT 10SM BKN016 OVC080 19/17 A2995 RMK AO2
K14Y 180315Z AUTO 36004KT 10SM BKN014 OVC080 19/17 A2995 RMK AO2
K14Y 180255Z AUTO 02009KT 10SM BKN012 OVC085 19/17 A2992 RMK AO2
K14Y 180235Z AUTO 03007KT 10SM OVC012 19/17 A2992 RMK AO2
K14Y 180216Z AUTO 02007KT 10SM OVC012 19/17 A2991 RMK AO2
K14Y 180155Z AUTO 02009G15KT 7SM BKN010 OVC014 20/18 A2988 RMK AO2 LTG DSNT S
K14Y 180136Z AUTO 36011G16KT 7SM OVC010 20/18 A2989 RMK AO2
K14Y 180135Z AUTO 36011G15KT 10SM OVC010 20/18 A2989 RMK AO2
K14Y 180115Z AUTO 36010G16KT 7SM OVC014 20/18 A2987 RMK AO2
K14Y 180055Z AUTO 36009KT 10SM BKN012 OVC017 20/18 A2988 RMK AO2
K14Y 180035Z AUTO 36007KT 7SM OVC012 21/19 A2988 RMK AO2
K14Y 180015Z AUTO 34006KT 10SM OVC016 21/20 A2988 RMK AO2
K14Y 172355Z AUTO 35006KT 10SM SCT012 OVC020 21/20 A2986 RMK AO2 P0001
K14Y 172335Z AUTO 34006KT 10SM -RA SCT012 BKN032 OVC075 22/21 A2986 RMK AO2 P0001
K14Y 172315Z AUTO 33006KT 10SM -RA SCT014 SCT035 OVC075 22/21 A2986 RMK AO2 P0001
K14Y 172256Z AUTO 33005KT 10SM SCT007 OVC075 22/20 A2986 RMK AO2
K14Y 172255Z AUTO 33006KT 10SM SCT007 OVC075 22/20 A2986 RMK AO2
K14Y 172235Z AUTO 32006KT 10SM OVC007 22/20 A2987 RMK AO2
K14Y 172215Z AUTO 33007KT 10SM OVC007 22/21 A2986 RMK AO2
K14Y 172155Z AUTO 31007KT 7SM BKN007 BKN019 OVC040 22/21 A2986 RMK AO2 P0009
K14Y 172135Z AUTO 31005KT 5SM -RA SCT007 BKN036 OVC060 21/21 A2985 RMK AO2 LTG DSNT E P0009
K14Y 172115Z AUTO 32004KT 3SM +RA SCT008 BKN041 OVC060 21/20 A2984 RMK AO2 P0005